Time;durP1;ratioP1;P1;durP2;ratioP2;P2;SDS_P1;SDS_P2;PMS_P1;PMS_P2;Temp;Humidity;BMP_temperature;BMP_pressure;BME280_temperature;BME280_humidity;BME280_pressure;Samples;Min_cycle;Max_cycle;Signal;HPM_P1;HPM_P2
2023/04/15 00:00:49;;;;;;;4.10;3.70;;;7.60;99.90;;;;;;5043569;28;20233;-60
2023/04/15 00:03:17;;;;;;;4.23;3.70;;;7.50;99.90;;;;;;5051304;28;20228;-58
2023/04/15 00:05:45;;;;;;;4.37;3.40;;;7.50;99.90;;;;;;5045980;28;20287;-59
2023/04/15 00:08:14;;;;;;;3.90;3.50;;;7.50;99.90;;;;;;5051878;28;20219;-58
2023/04/15 00:10:43;;;;;;;3.83;3.30;;;7.50;99.90;;;;;;5055713;28;20191;-60
2023/04/15 00:13:10;;;;;;;4.07;3.67;;;7.50;99.90;;;;;;5066166;28;20196;-59
2023/04/15 00:15:37;;;;;;;5.30;4.60;;;7.40;99.90;;;;;;5056537;28;20258;-54
2023/04/15 00:18:04;;;;;;;6.87;4.27;;;7.50;99.90;;;;;;5062866;28;20607;-49
2023/04/15 00:20:34;;;;;;;4.30;3.90;;;7.50;99.90;;;;;;5029086;28;20211;-57
2023/04/15 00:23:04;;;;;;;4.07;3.77;;;7.40;99.90;;;;;;5062757;28;20254;-53
2023/04/15 00:25:31;;;;;;;4.40;3.90;;;7.40;99.90;;;;;;5055850;28;20642;-56
2023/04/15 00:28:19;;;;;;;4.60;4.20;;;7.40;99.90;;;;;;5066435;28;20218;-55
2023/04/15 00:30:47;;;;;;;4.30;3.90;;;7.40;99.90;;;;;;5062912;28;20202;-56
2023/04/15 00:33:15;;;;;;;3.97;3.67;;;7.50;99.90;;;;;;5058906;28;20284;-56
2023/04/15 00:35:41;;;;;;;4.10;3.70;;;7.50;99.90;;;;;;5057073;28;20211;-54
2023/04/15 00:38:10;;;;;;;4.13;3.70;;;7.50;99.90;;;;;;5034257;28;20229;-50
2023/04/15 00:40:37;;;;;;;4.37;3.97;;;7.50;99.90;;;;;;5065376;28;20238;-58
2023/04/15 00:43:05;;;;;;;4.27;3.63;;;7.50;99.90;;;;;;5067195;28;20202;-54
2023/04/15 00:45:32;;;;;;;4.77;4.20;;;7.50;99.90;;;;;;5048967;28;20203;-56
2023/04/15 00:47:59;;;;;;;4.97;4.30;;;7.50;99.90;;;;;;5051093;28;20223;-51
2023/04/15 00:50:26;;;;;;;5.00;3.93;;;7.50;99.90;;;;;;5055470;28;20203;-57
2023/04/15 00:52:53;;;;;;;5.13;4.33;;;7.50;99.90;;;;;;5044647;28;20213;-54
2023/04/15 00:55:21;;;;;;;4.83;4.37;;;7.50;99.90;;;;;;5067938;28;20200;-58
2023/04/15 00:57:49;;;;;;;4.33;3.93;;;7.50;99.90;;;;;;5073462;28;20195;-58
2023/04/15 01:00:17;;;;;;;5.23;4.73;;;7.50;99.90;;;;;;5074365;28;20236;-59
2023/04/15 01:02:46;;;;;;;5.40;4.63;;;7.50;99.90;;;;;;5046242;28;20209;-56
2023/04/15 01:05:16;;;;;;;5.37;4.80;;;7.50;99.90;;;;;;5050218;28;20942;-57
2023/04/15 01:07:42;;;;;;;5.13;4.63;;;7.50;99.90;;;;;;5044828;28;20293;-60
2023/04/15 01:10:10;;;;;;;5.77;5.00;;;7.50;99.90;;;;;;5045681;28;20202;-60
2023/04/15 01:12:39;;;;;;;5.43;4.77;;;7.50;99.90;;;;;;5063321;28;20194;-56
2023/04/15 01:15:09;;;;;;;5.17;4.43;;;7.50;99.90;;;;;;5057863;28;20204;-60
2023/04/15 01:17:59;;;;;;;6.13;4.60;;;7.50;99.90;;;;;;5027627;28;20408;-53
2023/04/15 01:20:45;;;;;;;5.60;4.67;;;7.50;99.90;;;;;;5054141;28;20713;-54
2023/04/15 01:23:13;;;;;;;5.07;4.67;;;7.50;99.90;;;;;;5038052;28;20276;-58
2023/04/15 01:25:43;;;;;;;5.23;4.73;;;7.50;99.90;;;;;;5060338;28;20674;-59
2023/04/15 01:28:11;;;;;;;6.30;5.40;;;7.50;99.90;;;;;;5064737;28;20210;-58
2023/04/15 01:30:38;;;;;;;5.63;4.73;;;7.50;99.90;;;;;;5054432;28;20222;-56
2023/04/15 01:33:06;;;;;;;5.90;5.00;;;7.50;99.90;;;;;;5045538;28;20274;-57
2023/04/15 01:35:33;;;;;;;5.20;4.50;;;7.40;99.90;;;;;;5061199;28;20707;-56
2023/04/15 01:38:06;;;;;;;6.00;5.13;;;7.50;99.90;;;;;;5035537;28;20253;-52
2023/04/15 01:40:33;;;;;;;6.77;5.00;;;7.50;99.90;;;;;;5064235;28;20211;-57
2023/04/15 01:43:22;;;;;;;6.30;5.07;;;7.40;99.90;;;;;;5062581;28;20209;-57
2023/04/15 01:45:50;;;;;;;6.60;4.97;;;7.40;99.90;;;;;;5045688;28;20239;-53
2023/04/15 01:48:17;;;;;;;5.50;5.00;;;7.40;99.90;;;;;;5039875;28;20229;-59
2023/04/15 01:50:45;;;;;;;4.63;4.23;;;7.40;99.90;;;;;;5055827;28;20187;-58
2023/04/15 01:53:12;;;;;;;6.00;5.40;;;7.40;99.90;;;;;;5029395;28;24768;-55
2023/04/15 01:55:40;;;;;;;6.50;4.87;;;7.40;99.90;;;;;;5062719;28;20191;-59
2023/04/15 01:58:07;;;;;;;6.93;5.70;;;7.40;99.90;;;;;;5069113;28;20267;-54
2023/04/15 02:00:35;;;;;;;8.27;5.30;;;7.50;99.90;;;;;;5052931;28;20220;-57
2023/04/15 02:03:25;;;;;;;5.90;4.87;;;7.40;99.90;;;;;;5051665;28;20244;-56
2023/04/15 02:05:52;;;;;;;7.20;5.97;;;7.40;99.90;;;;;;5065912;28;20289;-51
2023/04/15 02:08:19;;;;;;;8.20;6.10;;;7.40;99.90;;;;;;5060957;28;20214;-60
2023/04/15 02:10:46;;;;;;;5.70;5.00;;;7.40;99.90;;;;;;5045045;28;20328;-52
2023/04/15 02:13:13;;;;;;;6.63;5.53;;;7.40;99.90;;;;;;5055299;28;20267;-53
2023/04/15 02:15:47;;;;;;;7.23;6.20;;;7.50;99.90;;;;;;5072679;28;20574;-59
2023/04/15 02:18:14;;;;;;;7.80;6.17;;;7.50;99.90;;;;;;5068788;28;20309;-60
2023/04/15 02:20:44;;;;;;;7.87;5.93;;;7.50;99.90;;;;;;5053251;28;20314;-57
2023/04/15 02:23:11;;;;;;;6.93;6.13;;;7.50;99.90;;;;;;5058556;28;20203;-60
2023/04/15 02:25:38;;;;;;;7.93;7.10;;;7.50;99.90;;;;;;5042951;28;20291;-55
2023/04/15 02:28:06;;;;;;;8.27;6.43;;;7.50;99.90;;;;;;5046221;28;20268;-54
2023/04/15 02:30:33;;;;;;;8.00;6.40;;;7.50;99.90;;;;;;5059062;28;20744;-58
2023/04/15 02:33:04;;;;;;;9.87;6.27;;;7.50;99.90;;;;;;5064522;28;20246;-50
2023/04/15 02:35:31;;;;;;;7.63;6.40;;;7.50;99.90;;;;;;5046648;28;20208;-60
2023/04/15 02:37:59;;;;;;;7.97;6.70;;;7.50;99.90;;;;;;5060546;28;20214;-53
2023/04/15 02:40:27;;;;;;;10.80;7.30;;;7.50;99.90;;;;;;5033855;28;20223;-57
2023/04/15 02:42:57;;;;;;;8.60;7.20;;;7.50;99.90;;;;;;5052976;28;20518;-52
2023/04/15 02:45:26;;;;;;;8.97;7.47;;;7.50;99.90;;;;;;5058391;28;20241;-56
2023/04/15 02:47:53;;;;;;;10.63;7.70;;;7.50;99.90;;;;;;5061313;28;20226;-51
2023/04/15 02:50:22;;;;;;;9.90;7.30;;;7.50;99.90;;;;;;5063661;28;20257;-59
2023/04/15 02:52:49;;;;;;;12.23;8.23;;;7.50;99.90;;;;;;5034766;28;20204;-55
2023/04/15 02:55:16;;;;;;;10.60;7.67;;;7.50;99.90;;;;;;5024344;28;20268;-52
2023/04/15 02:57:45;;;;;;;12.30;7.97;;;7.60;99.90;;;;;;5053281;28;20207;-58
2023/04/15 03:00:13;;;;;;;10.87;7.80;;;7.60;99.90;;;;;;5067298;28;20628;-53
2023/04/15 03:02:42;;;;;;;10.60;7.40;;;7.60;99.90;;;;;;5055274;28;20205;-59
2023/04/15 03:05:12;;;;;;;13.60;8.00;;;7.60;99.90;;;;;;5065779;28;20194;-52
2023/04/15 03:07:44;;;;;;;10.87;8.13;;;7.60;99.90;;;;;;5038505;28;20186;-53
2023/04/15 03:10:13;;;;;;;10.43;7.27;;;7.60;99.90;;;;;;5029699;28;20449;-48
2023/04/15 03:12:40;;;;;;;12.40;8.07;;;7.60;99.90;;;;;;5057602;28;20959;-53
2023/04/15 03:15:10;;;;;;;11.33;7.87;;;7.60;99.90;;;;;;5045118;28;20289;-52
2023/04/15 03:17:41;;;;;;;11.93;8.33;;;7.60;99.90;;;;;;5061135;28;20190;-57
2023/04/15 03:20:09;;;;;;;15.63;8.97;;;7.70;99.90;;;;;;5067145;28;20213;-54
2023/04/15 03:22:36;;;;;;;13.83;9.00;;;7.70;99.90;;;;;;5034752;28;20210;-54
2023/04/15 03:25:06;;;;;;;12.60;8.50;;;7.60;99.90;;;;;;5062516;28;20596;-54
2023/04/15 03:27:33;;;;;;;13.83;8.67;;;7.60;99.90;;;;;;5044335;28;20204;-52
2023/04/15 03:30:03;;;;;;;14.70;9.87;;;7.60;99.90;;;;;;5052922;28;20203;-59
2023/04/15 03:32:33;;;;;;;14.90;9.40;;;7.70;99.90;;;;;;5051320;28;20195;-59
2023/04/15 03:35:00;;;;;;;12.00;8.97;;;7.70;99.90;;;;;;5063149;28;20191;-53
2023/04/15 03:37:27;;;;;;;14.77;10.10;;;7.70;99.90;;;;;;5052095;28;20198;-53
2023/04/15 03:39:54;;;;;;;14.63;9.87;;;7.70;99.90;;;;;;5043368;28;20222;-57
2023/04/15 03:42:22;;;;;;;15.03;10.00;;;7.60;99.90;;;;;;5030913;28;20207;-51
2023/04/15 03:44:49;;;;;;;15.50;10.60;;;7.70;99.90;;;;;;5050770;28;20276;-57
2023/04/15 03:47:16;;;;;;;17.67;11.83;;;7.70;99.90;;;;;;5053546;28;20198;-53
2023/04/15 03:49:43;;;;;;;18.03;11.13;;;7.70;99.90;;;;;;5051590;28;20401;-57
2023/04/15 03:52:31;;;;;;;17.00;10.93;;;7.70;99.90;;;;;;5044576;28;20304;-59
2023/04/15 03:54:58;;;;;;;18.00;11.67;;;7.70;99.90;;;;;;5050561;28;20204;-57
2023/04/15 03:57:27;;;;;;;18.73;11.67;;;7.70;99.90;;;;;;5034495;28;20609;-52
2023/04/15 03:59:54;;;;;;;19.20;11.57;;;7.70;99.90;;;;;;5059924;28;20245;-57
2023/04/15 04:02:21;;;;;;;22.33;12.57;;;7.70;99.90;;;;;;5044747;28;20221;-53
2023/04/15 04:04:49;;;;;;;18.83;12.80;;;7.70;99.90;;;;;;5062002;28;20210;-53
2023/04/15 04:07:16;;;;;;;19.80;12.50;;;7.70;99.90;;;;;;5054522;28;20196;-52
2023/04/15 04:09:44;;;;;;;18.67;12.53;;;7.70;99.90;;;;;;5044727;28;20226;-59
2023/04/15 04:12:11;;;;;;;22.13;13.07;;;7.70;99.90;;;;;;5045363;28;20294;-51
2023/04/15 04:14:39;;;;;;;23.53;13.93;;;7.80;99.90;;;;;;5066192;28;20193;-59
2023/04/15 04:17:06;;;;;;;22.80;13.87;;;7.70;99.90;;;;;;5057268;28;20227;-55
2023/04/15 04:19:34;;;;;;;23.27;14.57;;;7.80;99.90;;;;;;5051202;28;20241;-59
2023/04/15 04:22:01;;;;;;;24.40;14.50;;;7.80;99.90;;;;;;5055771;28;20226;-56
2023/04/15 04:24:28;;;;;;;23.13;14.57;;;7.80;99.90;;;;;;5044650;28;20205;-59
2023/04/15 04:26:55;;;;;;;23.33;14.67;;;7.80;99.90;;;;;;5048814;28;20209;-59
2023/04/15 04:29:22;;;;;;;21.63;13.90;;;7.80;99.90;;;;;;5064102;28;20239;-49
2023/04/15 04:31:50;;;;;;;27.03;15.50;;;7.80;99.90;;;;;;5051410;28;20232;-51
2023/04/15 04:34:18;;;;;;;24.13;15.47;;;7.80;99.90;;;;;;5056002;28;20199;-54
2023/04/15 04:36:45;;;;;;;29.63;15.77;;;7.80;99.90;;;;;;5056201;28;20201;-59
2023/04/15 04:39:12;;;;;;;26.10;15.30;;;7.80;99.90;;;;;;5060595;28;20306;-50
2023/04/15 04:41:39;;;;;;;32.27;16.70;;;7.80;99.90;;;;;;5061240;28;20239;-58
2023/04/15 04:44:06;;;;;;;27.33;16.73;;;7.80;99.90;;;;;;5031353;28;20203;-56
2023/04/15 04:46:33;;;;;;;30.30;17.50;;;7.80;99.90;;;;;;5051657;28;20202;-53
2023/04/15 04:49:20;;;;;;;30.00;17.90;;;7.90;99.90;;;;;;5065681;28;20310;-60
2023/04/15 04:51:47;;;;;;;30.87;18.10;;;7.80;99.90;;;;;;5050605;28;20205;-51
2023/04/15 04:54:15;;;;;;;32.03;18.73;;;7.80;99.90;;;;;;5068191;28;20182;-60
2023/04/15 04:56:42;;;;;;;31.27;18.80;;;7.90;99.90;;;;;;5045327;28;20222;-59
2023/04/15 04:59:08;;;;;;;29.90;17.60;;;7.80;99.90;;;;;;5027512;28;20218;-54
2023/04/15 05:01:36;;;;;;;40.57;20.60;;;7.90;99.90;;;;;;5051537;28;20642;-58
2023/04/15 05:04:03;;;;;;;28.97;18.83;;;7.90;99.90;;;;;;5053068;28;20623;-54
2023/04/15 05:06:32;;;;;;;35.00;19.33;;;7.90;99.90;;;;;;5059701;28;20206;-60
2023/04/15 05:09:00;;;;;;;32.67;19.60;;;7.90;99.90;;;;;;5048866;28;20241;-54
2023/04/15 05:11:27;;;;;;;35.40;20.60;;;7.90;99.90;;;;;;5047331;28;20199;-56
2023/04/15 05:13:54;;;;;;;31.73;20.00;;;7.90;99.90;;;;;;5034239;28;20753;-52
2023/04/15 05:16:21;;;;;;;35.83;21.47;;;7.90;99.90;;;;;;5058365;28;20215;-57
2023/04/15 05:18:48;;;;;;;30.53;19.13;;;7.90;99.90;;;;;;5050910;28;20299;-57
2023/04/15 05:21:15;;;;;;;36.57;20.97;;;7.90;99.90;;;;;;5058180;28;20222;-50
2023/04/15 05:23:43;;;;;;;34.53;19.87;;;7.90;99.90;;;;;;5046298;28;20206;-58
2023/04/15 05:26:10;;;;;;;34.67;21.67;;;7.90;99.90;;;;;;5060154;28;20195;-53
2023/04/15 05:28:37;;;;;;;34.03;20.60;;;8.00;99.90;;;;;;5025209;28;23655;-56
2023/04/15 05:31:04;;;;;;;35.67;20.93;;;7.90;99.90;;;;;;5064927;28;20201;-57
2023/04/15 05:33:31;;;;;;;34.13;20.30;;;8.00;99.90;;;;;;5060012;28;20238;-59
2023/04/15 05:35:58;;;;;;;32.77;20.13;;;8.00;99.90;;;;;;5056982;28;20226;-55
2023/04/15 05:38:25;;;;;;;35.60;20.30;;;8.00;99.90;;;;;;5052654;28;20305;-51
2023/04/15 05:40:53;;;;;;;32.63;20.80;;;8.00;99.90;;;;;;5051296;28;20219;-55
2023/04/15 05:43:21;;;;;;;34.47;20.57;;;8.00;99.90;;;;;;5033450;28;20214;-51
2023/04/15 05:45:48;;;;;;;34.10;20.30;;;8.00;99.90;;;;;;5057163;28;20231;-53
2023/04/15 05:48:15;;;;;;;35.23;21.13;;;8.00;99.90;;;;;;5057993;28;20214;-50
2023/04/15 05:50:42;;;;;;;32.73;19.80;;;8.00;99.90;;;;;;5054269;28;20285;-56
2023/04/15 05:53:10;;;;;;;32.87;19.87;;;8.00;99.90;;;;;;5062466;28;20202;-51
2023/04/15 05:55:37;;;;;;;34.47;20.03;;;8.10;99.90;;;;;;5045639;28;20202;-58
2023/04/15 05:58:05;;;;;;;33.07;19.87;;;8.10;99.90;;;;;;5047021;28;20223;-60
2023/04/15 06:00:32;;;;;;;33.97;20.33;;;8.00;99.90;;;;;;5033219;28;20194;-59
2023/04/15 06:02:59;;;;;;;34.03;21.30;;;8.10;99.90;;;;;;5074008;28;20217;-57
2023/04/15 06:05:26;;;;;;;31.67;20.13;;;8.10;99.90;;;;;;5040568;28;20209;-55
2023/04/15 06:07:53;;;;;;;32.10;21.07;;;8.10;99.90;;;;;;5055215;28;20198;-57
2023/04/15 06:10:20;;;;;;;33.47;21.00;;;8.10;99.90;;;;;;5042328;28;20699;-51
2023/04/15 06:12:46;;;;;;;38.97;20.80;;;8.20;99.90;;;;;;5060584;28;20206;-60
2023/04/15 06:15:16;;;;;;;35.77;21.77;;;8.20;99.90;;;;;;5034462;28;20229;-51
2023/04/15 06:17:43;;;;;;;44.43;23.53;;;8.20;99.90;;;;;;5053359;28;20289;-59
2023/04/15 06:20:10;;;;;;;41.93;25.13;;;8.20;99.90;;;;;;5054061;28;20669;-53
2023/04/15 06:22:38;;;;;;;37.53;23.70;;;8.20;99.90;;;;;;5047608;28;20254;-54
2023/04/15 06:25:06;;;;;;;39.80;23.00;;;8.20;99.90;;;;;;5053258;28;20221;-59
2023/04/15 06:27:34;;;;;;;42.60;25.03;;;8.20;99.90;;;;;;5046655;28;20281;-54
2023/04/15 06:30:01;;;;;;;40.97;24.77;;;8.20;99.90;;;;;;5036650;28;20213;-59
2023/04/15 06:32:30;;;;;;;40.90;26.80;;;8.30;99.90;;;;;;5040450;28;20273;-54
2023/04/15 06:34:57;;;;;;;45.17;26.93;;;8.30;99.90;;;;;;5039461;28;20292;-53
2023/04/15 06:37:24;;;;;;;46.77;26.53;;;8.30;99.90;;;;;;5053208;28;20198;-56
2023/04/15 06:39:54;;;;;;;48.20;27.50;;;8.30;99.90;;;;;;5046888;28;20287;-56
2023/04/15 06:42:21;;;;;;;50.33;28.13;;;8.30;99.90;;;;;;5050593;28;20218;-59
2023/04/15 06:44:48;;;;;;;52.03;28.97;;;8.30;99.90;;;;;;5043167;28;20236;-54
2023/04/15 06:47:15;;;;;;;44.33;25.60;;;8.30;99.90;;;;;;5037714;28;20206;-58
2023/04/15 06:49:44;;;;;;;46.87;30.10;;;8.30;99.90;;;;;;5039630;28;20297;-50
2023/04/15 06:52:11;;;;;;;48.67;28.97;;;8.30;99.90;;;;;;5059486;28;20642;-54
2023/04/15 06:54:39;;;;;;;48.10;28.40;;;8.30;99.90;;;;;;5059386;28;20207;-53
2023/04/15 06:57:06;;;;;;;50.80;28.67;;;8.40;99.90;;;;;;5054868;28;20194;-57
2023/04/15 06:59:32;;;;;;;46.53;28.20;;;8.40;99.90;;;;;;5053826;28;20302;-50
2023/04/15 07:01:59;;;;;;;44.50;29.00;;;8.40;99.90;;;;;;5052585;28;20218;-56
2023/04/15 07:04:26;;;;;;;48.03;30.10;;;8.40;99.90;;;;;;5019577;28;20201;-47
2023/04/15 07:06:55;;;;;;;53.50;30.13;;;8.50;99.90;;;;;;5047762;28;20932;-58
2023/04/15 07:09:23;;;;;;;51.90;30.20;;;8.50;99.90;;;;;;5059239;28;20223;-51
2023/04/15 07:11:50;;;;;;;54.13;29.60;;;8.40;99.90;;;;;;5048002;28;20199;-59
2023/04/15 07:14:18;;;;;;;51.63;30.60;;;8.50;99.90;;;;;;5060595;28;20202;-56
2023/04/15 07:16:44;;;;;;;47.57;30.50;;;8.50;99.90;;;;;;5045382;28;20193;-56
2023/04/15 07:19:11;;;;;;;49.13;29.70;;;8.50;99.90;;;;;;5038103;28;20217;-58
2023/04/15 07:21:39;;;;;;;49.17;29.73;;;8.50;99.90;;;;;;5050849;28;20225;-59
2023/04/15 07:24:09;;;;;;;54.77;29.07;;;8.50;99.90;;;;;;5064987;28;20199;-57
2023/04/15 07:26:36;;;;;;;48.33;28.90;;;8.60;99.90;;;;;;5051161;28;20205;-51
2023/04/15 07:29:03;;;;;;;45.77;27.90;;;8.60;99.90;;;;;;5052027;28;20222;-57
2023/04/15 07:31:31;;;;;;;50.90;29.53;;;8.60;99.90;;;;;;5031782;28;20735;-52
2023/04/15 07:33:58;;;;;;;48.20;28.80;;;8.60;99.90;;;;;;5051140;28;20209;-50
2023/04/15 07:36:25;;;;;;;48.83;27.70;;;8.60;99.90;;;;;;5043345;28;20202;-52
2023/04/15 07:38:52;;;;;;;48.47;28.33;;;8.60;99.90;;;;;;5070261;28;20267;-57
2023/04/15 07:41:21;;;;;;;51.73;29.03;;;8.60;99.90;;;;;;5065922;28;20667;-50
2023/04/15 07:43:48;;;;;;;53.97;30.47;;;8.70;99.90;;;;;;5030644;28;20206;-55
2023/04/15 07:46:15;;;;;;;49.80;30.07;;;8.70;99.90;;;;;;5064997;28;20202;-55
2023/04/15 07:48:45;;;;;;;47.60;28.63;;;8.70;99.90;;;;;;5044313;28;20220;-59
2023/04/15 07:51:13;;;;;;;52.17;30.77;;;8.70;99.90;;;;;;5031607;28;20621;-55
2023/04/15 07:53:39;;;;;;;50.17;30.03;;;8.70;99.90;;;;;;5050806;28;20198;-57
2023/04/15 07:56:07;;;;;;;51.17;28.93;;;8.70;99.90;;;;;;5066680;28;20191;-56
2023/04/15 07:58:36;;;;;;;52.67;30.80;;;8.70;99.90;;;;;;5041996;28;20261;-50
2023/04/15 08:01:05;;;;;;;46.53;27.93;;;8.80;99.90;;;;;;5054029;28;20210;-58
2023/04/15 08:03:32;;;;;;;49.90;28.50;;;8.80;99.90;;;;;;5051021;28;20225;-50
2023/04/15 08:05:59;;;;;;;45.90;28.30;;;8.80;99.90;;;;;;5051539;28;20276;-59
2023/04/15 08:08:26;;;;;;;47.63;29.20;;;8.80;99.90;;;;;;5057218;28;20697;-54
2023/04/15 08:10:54;;;;;;;44.03;26.60;;;8.80;99.90;;;;;;5051928;28;20308;-58
2023/04/15 08:13:20;;;;;;;42.47;28.47;;;8.80;99.90;;;;;;5059510;28;20328;-53
2023/04/15 08:16:17;;;;;;;51.80;29.50;;;8.90;99.90;;;;;;5042520;28;20268;-57
2023/04/15 08:18:44;;;;;;;49.60;30.10;;;8.80;99.90;;;;;;5044758;28;24031;-58
2023/04/15 08:21:11;;;;;;;44.40;27.97;;;8.80;99.90;;;;;;5059686;28;20225;-50
2023/04/15 08:23:42;;;;;;;47.77;28.43;;;8.80;99.90;;;;;;5042884;28;20242;-54
2023/04/15 08:26:13;;;;;;;41.33;26.17;;;8.80;99.90;;;;;;5059587;28;20256;-54
2023/04/15 08:28:42;;;;;;;48.93;27.70;;;8.90;99.90;;;;;;5053182;28;20210;-58
2023/04/15 08:31:10;;;;;;;46.53;28.73;;;8.90;99.90;;;;;;5059069;28;20666;-49
2023/04/15 08:33:39;;;;;;;41.83;25.57;;;8.90;99.90;;;;;;5048222;28;20282;-52
2023/04/15 08:36:28;;;;;;;42.17;27.43;;;9.00;99.90;;;;;;5054740;28;20303;-56
2023/04/15 08:39:13;;;;;;;37.97;26.07;;;9.00;99.90;;;;;;5033648;28;20279;-50
2023/04/15 08:41:46;;;;;;;45.23;28.17;;;9.00;99.90;;;;;;5055795;28;20203;-52
2023/04/15 08:44:16;;;;;;;43.80;28.70;;;9.00;99.90;;;;;;5055303;28;20198;-56
2023/04/15 08:46:45;;;;;;;47.20;29.30;;;9.10;99.90;;;;;;5055631;28;20285;-51
2023/04/15 08:49:15;;;;;;;43.27;27.27;;;9.00;99.90;;;;;;5052309;28;20673;-54
2023/04/15 08:51:44;;;;;;;45.33;28.23;;;9.10;99.90;;;;;;5062662;28;20217;-51
2023/04/15 08:54:11;;;;;;;47.77;28.63;;;9.10;99.90;;;;;;5025138;28;20683;-54
2023/04/15 08:56:39;;;;;;;41.97;27.67;;;9.10;99.90;;;;;;5053496;28;20191;-51
2023/04/15 08:59:07;;;;;;;42.57;27.43;;;9.20;99.90;;;;;;5059203;28;20214;-58
2023/04/15 09:01:35;;;;;;;50.30;27.90;;;9.20;99.90;;;;;;5061790;28;20230;-51
2023/04/15 09:04:05;;;;;;;44.60;27.73;;;9.30;99.90;;;;;;5051127;28;21574;-58
2023/04/15 09:06:34;;;;;;;45.93;27.83;;;9.30;99.90;;;;;;5059973;28;20194;-49
2023/04/15 09:09:01;;;;;;;49.40;28.47;;;9.40;99.90;;;;;;5034545;28;20225;-55
2023/04/15 09:11:30;;;;;;;46.73;28.83;;;9.50;99.90;;;;;;5056785;28;20203;-59
2023/04/15 09:13:57;;;;;;;47.93;27.63;;;9.50;99.90;;;;;;5061683;28;20187;-57
2023/04/15 09:16:24;;;;;;;44.80;28.27;;;9.60;99.90;;;;;;5063799;28;20202;-59
2023/04/15 09:18:50;;;;;;;45.03;28.73;;;9.60;99.90;;;;;;5042945;28;20333;-58
2023/04/15 09:21:18;;;;;;;48.57;28.80;;;9.70;99.90;;;;;;5066023;28;20214;-56
2023/04/15 09:23:56;;;;;;;47.67;28.53;;;9.80;99.90;;;;;;5032744;28;20222;-51
2023/04/15 09:26:32;;;;;;;49.23;28.93;;;9.80;99.90;;;;;;5051488;28;20705;-56
2023/04/15 09:29:05;;;;;;;47.37;27.50;;;9.90;99.90;;;;;;5062004;28;20256;-59
2023/04/15 09:31:32;;;;;;;45.27;27.40;;;10.00;99.90;;;;;;5048230;28;20317;-56
2023/04/15 09:33:59;;;;;;;46.47;28.50;;;10.10;99.90;;;;;;5052133;28;20277;-56
2023/04/15 09:36:28;;;;;;;43.00;26.70;;;10.10;99.90;;;;;;5034568;28;20211;-52
2023/04/15 09:38:57;;;;;;;40.60;26.03;;;10.20;99.90;;;;;;5060681;28;20246;-58
2023/04/15 09:41:25;;;;;;;39.63;25.67;;;10.20;99.90;;;;;;5034908;28;20284;-53
2023/04/15 09:43:52;;;;;;;41.13;25.57;;;10.30;99.90;;;;;;5067619;28;20696;-58
2023/04/15 09:46:19;;;;;;;37.77;25.67;;;10.30;99.90;;;;;;5066747;28;20210;-50
2023/04/15 09:48:47;;;;;;;36.63;24.43;;;10.30;99.90;;;;;;5041634;28;20980;-52
2023/04/15 09:51:35;;;;;;;38.80;24.33;;;10.50;99.90;;;;;;5041858;28;20209;-56
2023/04/15 09:54:03;;;;;;;36.93;24.93;;;10.60;99.90;;;;;;5041005;28;20202;-49
2023/04/15 09:56:35;;;;;;;38.57;24.70;;;10.70;99.90;;;;;;5040061;28;20208;-51
2023/04/15 09:59:01;;;;;;;39.00;24.43;;;10.80;99.90;;;;;;5059793;28;20229;-52
2023/04/15 10:01:30;;;;;;;36.90;23.60;;;10.80;99.90;;;;;;5062511;28;20264;-56
2023/04/15 10:03:57;;;;;;;33.83;23.30;;;10.80;99.90;;;;;;5036141;28;20774;-53
2023/04/15 10:06:26;;;;;;;37.27;23.40;;;10.90;99.90;;;;;;5044986;28;20847;-60
2023/04/15 10:08:55;;;;;;;30.03;22.23;;;10.90;99.90;;;;;;5051504;28;20223;-48
2023/04/15 10:11:24;;;;;;;34.13;22.57;;;11.10;99.90;;;;;;5030249;28;20207;-57
2023/04/15 10:13:51;;;;;;;31.97;22.70;;;11.20;99.90;;;;;;5057532;28;20428;-50
2023/04/15 10:16:20;;;;;;;32.13;23.77;;;11.40;99.90;;;;;;5062379;28;20338;-53
2023/04/15 10:18:54;;;;;;;35.77;23.20;;;11.60;99.90;;;;;;5045422;28;20270;-48
2023/04/15 10:21:22;;;;;;;34.60;23.70;;;11.70;99.90;;;;;;5043900;28;21311;-55
2023/04/15 10:23:50;;;;;;;31.70;22.17;;;11.80;99.90;;;;;;5054201;28;20218;-49
2023/04/15 10:26:17;;;;;;;31.23;21.30;;;11.90;99.90;;;;;;5035457;28;22343;-58
2023/04/15 10:28:48;;;;;;;33.30;21.77;;;12.00;99.90;;;;;;5063074;28;20225;-52
2023/04/15 10:31:17;;;;;;;29.50;20.10;;;12.10;99.90;;;;;;5061629;28;20198;-57
2023/04/15 10:33:46;;;;;;;27.80;19.67;;;12.20;99.90;;;;;;5050910;28;20207;-53
2023/04/15 10:36:14;;;;;;;25.90;19.47;;;12.40;99.90;;;;;;5045141;28;20219;-57
2023/04/15 10:38:42;;;;;;;25.53;19.60;;;12.40;99.90;;;;;;5061474;28;20271;-54
2023/04/15 10:41:14;;;;;;;27.87;20.13;;;12.60;99.90;;;;;;5052092;28;20277;-57
2023/04/15 10:43:49;;;;;;;26.73;19.53;;;12.70;99.90;;;;;;5041815;28;20278;-53
2023/04/15 10:46:19;;;;;;;27.27;20.53;;;12.90;99.90;;;;;;5049641;28;20193;-54
2023/04/15 10:48:50;;;;;;;23.50;16.83;;;13.00;99.90;;;;;;5060038;28;20222;-49
2023/04/15 10:51:26;;;;;;;24.27;17.10;;;13.10;99.90;;;;;;5054409;28;20217;-59
2023/04/15 10:53:56;;;;;;;18.03;14.33;;;13.10;99.90;;;;;;5044676;28;20261;-53
2023/04/15 10:56:23;;;;;;;16.53;13.00;;;13.30;99.90;;;;;;5052082;28;20206;-57
2023/04/15 10:58:51;;;;;;;14.27;12.43;;;13.30;99.90;;;;;;5033072;28;20231;-52
2023/04/15 11:01:19;;;;;;;13.47;11.53;;;13.40;99.90;;;;;;5048062;28;20190;-49
2023/04/15 11:03:46;;;;;;;15.73;11.83;;;13.60;99.90;;;;;;5052558;28;20690;-57
2023/04/15 11:06:14;;;;;;;13.23;11.40;;;13.60;99.90;;;;;;5053344;28;20672;-53
2023/04/15 11:08:55;;;;;;;14.53;11.33;;;13.70;99.90;;;;;;5036403;28;20229;-56
2023/04/15 11:11:22;;;;;;;11.47;10.37;;;13.80;99.90;;;;;;5051283;28;20252;-52
2023/04/15 11:13:51;;;;;;;13.50;9.93;;;13.90;99.90;;;;;;5032810;28;20202;-51
2023/04/15 11:16:20;;;;;;;10.00;9.00;;;13.90;99.90;;;;;;5062909;28;20199;-55
2023/04/15 11:18:54;;;;;;;10.17;9.13;;;13.90;99.90;;;;;;5065229;28;20579;-58
2023/04/15 11:21:25;;;;;;;11.87;9.37;;;13.90;99.90;;;;;;5048525;28;20988;-58
2023/04/15 11:23:52;;;;;;;9.97;8.77;;;13.80;99.90;;;;;;5031999;28;20230;-52
2023/04/15 11:26:19;;;;;;;11.60;8.67;;;13.80;99.90;;;;;;5045778;28;20205;-56
2023/04/15 11:28:46;;;;;;;10.03;8.33;;;13.80;99.90;;;;;;5031205;28;20222;-55
2023/04/15 11:31:16;;;;;;;11.67;7.67;;;13.80;99.90;;;;;;5053390;28;20735;-56
2023/04/15 11:33:47;;;;;;;9.83;7.73;;;13.80;99.90;;;;;;5053683;28;20199;-52
2023/04/15 11:36:14;;;;;;;8.63;7.80;;;13.80;99.90;;;;;;5046746;28;20232;-57
2023/04/15 11:38:47;;;;;;;8.97;7.97;;;13.90;99.90;;;;;;5044210;28;20233;-55
2023/04/15 11:41:14;;;;;;;9.40;8.13;;;13.90;99.90;;;;;;5052995;28;20190;-52
2023/04/15 11:43:42;;;;;;;9.37;8.33;;;13.80;99.90;;;;;;5037651;28;20221;-54
2023/04/15 11:46:08;;;;;;;9.40;8.50;;;13.90;99.90;;;;;;5055556;28;20195;-57
2023/04/15 11:48:37;;;;;;;9.33;8.30;;;14.00;99.90;;;;;;5058529;28;20303;-54
2023/04/15 11:51:05;;;;;;;9.33;8.33;;;13.90;99.90;;;;;;5048197;28;20215;-56
2023/04/15 11:53:40;;;;;;;10.27;9.17;;;13.90;99.90;;;;;;5054027;28;20191;-56
2023/04/15 11:56:09;;;;;;;9.30;8.40;;;13.80;99.90;;;;;;5037563;28;20255;-58
2023/04/15 11:58:38;;;;;;;8.70;7.80;;;13.70;99.90;;;;;;5050220;28;20226;-55
2023/04/15 12:01:06;;;;;;;9.30;8.40;;;13.60;99.90;;;;;;5043494;28;20226;-58
2023/04/15 12:03:39;;;;;;;9.93;8.90;;;13.50;99.90;;;;;;5057574;28;20701;-56
2023/04/15 12:06:16;;;;;;;9.90;9.00;;;13.50;99.90;;;;;;5052758;28;20248;-56
2023/04/15 12:08:58;;;;;;;10.40;9.20;;;13.50;99.90;;;;;;5046545;28;20225;-49
2023/04/15 12:11:30;;;;;;;8.73;7.93;;;13.50;99.90;;;;;;5052314;28;20578;-54
2023/04/15 12:14:02;;;;;;;9.23;8.23;;;13.40;99.90;;;;;;5045569;28;20771;-53
2023/04/15 12:16:29;;;;;;;9.70;8.67;;;13.40;99.90;;;;;;5040555;28;20207;-55
2023/04/15 12:19:00;;;;;;;10.97;9.40;;;13.30;99.90;;;;;;5053583;28;20219;-57
2023/04/15 12:21:29;;;;;;;10.43;8.60;;;13.20;99.90;;;;;;5063518;28;20201;-52
2023/04/15 12:23:57;;;;;;;11.20;9.33;;;13.20;99.90;;;;;;5036373;28;20729;-55
2023/04/15 12:26:29;;;;;;;10.57;9.47;;;13.20;99.90;;;;;;5069374;28;20194;-56
2023/04/15 12:29:00;;;;;;;10.30;9.20;;;13.20;99.90;;;;;;5051484;28;20288;-55
2023/04/15 12:31:27;;;;;;;10.93;9.10;;;13.20;99.90;;;;;;5045790;28;20211;-54
2023/04/15 12:33:55;;;;;;;9.37;8.47;;;13.20;99.90;;;;;;5056901;28;20195;-52
2023/04/15 12:36:24;;;;;;;9.93;8.90;;;13.20;99.90;;;;;;5064078;28;20202;-54
2023/04/15 12:38:50;;;;;;;10.30;9.20;;;13.30;99.90;;;;;;5046702;28;20237;-51
2023/04/15 12:41:18;;;;;;;10.90;9.33;;;13.30;99.90;;;;;;5057025;28;20274;-53
2023/04/15 12:43:45;;;;;;;14.17;10.33;;;13.40;99.90;;;;;;5048395;28;20229;-57
2023/04/15 12:46:12;;;;;;;9.20;8.40;;;13.40;99.90;;;;;;5051977;28;20915;-57
2023/04/15 12:48:40;;;;;;;9.63;8.67;;;13.50;99.90;;;;;;5063567;28;20210;-52